Armstrong, Iowa
Current Conditions -  °F | °C
As of 10:03 AM on Wednesday 26 Nov 2014 (Local Time) from KEST Reporting Station
Light Snow Light Snow  
Wind Chill: 13°   Ceiling: 700
Heat Index: 26°   Visibility: 1.2mi
Dew Point: 23°   Wind: 17mph
Humidity: 88%   Direction: 10°N
Pressure: 30.06"   Gusts: NA
Location:  43.4°N, 94.48°W
Report Text: KEST 261603Z AUTO 01015KT 1 1/4SM -SN BR BKN007 BKN029 OVC044 M03/M05 A3006 RMK AO2 P0000 T10331050
Loading
Personal Weather Stations






























Interactive Weather Map New forecast layout! Learn more

10-Day Weather Forecast

Advertisements
Track Severe Weather on mobile